sensor_id;sensor_type;location;lat;lon;timestamp;P1;durP1;ratioP1;P2;durP2;ratioP2
1701;SDS011;848;48.354;10.064;2023-04-05T00:02:26;9.75;;;4.40;;
1701;SDS011;848;48.354;10.064;2023-04-05T00:04:55;9.30;;;4.30;;
1701;SDS011;848;48.354;10.064;2023-04-05T00:07:23;9.80;;;3.95;;
1701;SDS011;848;48.354;10.064;2023-04-05T00:09:53;8.35;;;3.92;;
1701;SDS011;848;48.354;10.064;2023-04-05T00:12:21;7.60;;;4.22;;
1701;SDS011;848;48.354;10.064;2023-04-05T00:14:48;10.65;;;4.22;;
1701;SDS011;848;48.354;10.064;2023-04-05T00:17:15;10.60;;;4.00;;
1701;SDS011;848;48.354;10.064;2023-04-05T00:19:43;9.57;;;4.55;;
1701;SDS011;848;48.354;10.064;2023-04-05T00:22:09;8.57;;;4.28;;
1701;SDS011;848;48.354;10.064;2023-04-05T00:24:37;11.18;;;4.75;;
1701;SDS011;848;48.354;10.064;2023-04-05T00:27:06;12.45;;;4.50;;
1701;SDS011;848;48.354;10.064;2023-04-05T00:29:34;9.63;;;4.55;;
1701;SDS011;848;48.354;10.064;2023-04-05T00:32:01;8.10;;;3.92;;
1701;SDS011;848;48.354;10.064;2023-04-05T00:34:28;9.85;;;5.40;;
1701;SDS011;848;48.354;10.064;2023-04-05T00:36:56;8.07;;;4.10;;
1701;SDS011;848;48.354;10.064;2023-04-05T00:39:23;9.07;;;4.35;;
1701;SDS011;848;48.354;10.064;2023-04-05T00:41:50;8.73;;;4.20;;
1701;SDS011;848;48.354;10.064;2023-04-05T00:44:17;12.82;;;5.70;;
1701;SDS011;848;48.354;10.064;2023-04-05T00:46:45;10.60;;;5.13;;
1701;SDS011;848;48.354;10.064;2023-04-05T00:49:12;13.40;;;5.13;;
1701;SDS011;848;48.354;10.064;2023-04-05T00:51:39;9.18;;;4.57;;
1701;SDS011;848;48.354;10.064;2023-04-05T00:54:07;11.82;;;4.72;;
1701;SDS011;848;48.354;10.064;2023-04-05T00:56:35;10.30;;;4.80;;
1701;SDS011;848;48.354;10.064;2023-04-05T00:59:04;10.23;;;4.75;;
1701;SDS011;848;48.354;10.064;2023-04-05T01:01:31;8.20;;;4.57;;
1701;SDS011;848;48.354;10.064;2023-04-05T01:04:03;7.40;;;4.25;;
1701;SDS011;848;48.354;10.064;2023-04-05T01:09:25;10.70;;;4.75;;
1701;SDS011;848;48.354;10.064;2023-04-05T01:12:00;8.70;;;4.88;;
1701;SDS011;848;48.354;10.064;2023-04-05T01:14:31;7.60;;;3.88;;
1701;SDS011;848;48.354;10.064;2023-04-05T01:16:58;8.70;;;4.15;;
1701;SDS011;848;48.354;10.064;2023-04-05T01:19:27;10.65;;;4.75;;
1701;SDS011;848;48.354;10.064;2023-04-05T01:22:10;8.50;;;3.70;;
1701;SDS011;848;48.354;10.064;2023-04-05T01:25:01;9.27;;;3.53;;
1701;SDS011;848;48.354;10.064;2023-04-05T01:27:55;9.85;;;4.25;;
1701;SDS011;848;48.354;10.064;2023-04-05T01:30:40;13.18;;;4.70;;
1701;SDS011;848;48.354;10.064;2023-04-05T01:33:16;9.10;;;4.22;;
1701;SDS011;848;48.354;10.064;2023-04-05T01:35:51;8.30;;;3.75;;
1701;SDS011;848;48.354;10.064;2023-04-05T01:38:24;11.18;;;5.57;;
1701;SDS011;848;48.354;10.064;2023-04-05T01:40:53;10.10;;;4.90;;
1701;SDS011;848;48.354;10.064;2023-04-05T01:43:20;9.63;;;4.70;;
1701;SDS011;848;48.354;10.064;2023-04-05T01:45:48;9.50;;;4.18;;
1701;SDS011;848;48.354;10.064;2023-04-05T01:48:15;8.75;;;4.78;;
1701;SDS011;848;48.354;10.064;2023-04-05T01:50:42;8.05;;;3.90;;
1701;SDS011;848;48.354;10.064;2023-04-05T01:53:09;10.18;;;5.05;;
1701;SDS011;848;48.354;10.064;2023-04-05T01:55:36;8.68;;;4.28;;
1701;SDS011;848;48.354;10.064;2023-04-05T01:58:03;10.00;;;4.93;;
1701;SDS011;848;48.354;10.064;2023-04-05T02:00:30;10.00;;;5.00;;
1701;SDS011;848;48.354;10.064;2023-04-05T02:02:59;10.90;;;5.28;;
1701;SDS011;848;48.354;10.064;2023-04-05T02:05:25;9.20;;;5.13;;
1701;SDS011;848;48.354;10.064;2023-04-05T02:07:52;8.80;;;5.13;;
1701;SDS011;848;48.354;10.064;2023-04-05T02:10:20;10.98;;;4.90;;
1701;SDS011;848;48.354;10.064;2023-04-05T02:12:47;8.95;;;4.38;;
1701;SDS011;848;48.354;10.064;2023-04-05T02:15:14;12.43;;;5.65;;
1701;SDS011;848;48.354;10.064;2023-04-05T02:17:41;8.73;;;4.70;;
1701;SDS011;848;48.354;10.064;2023-04-05T02:20:11;10.50;;;4.47;;
1701;SDS011;848;48.354;10.064;2023-04-05T02:22:39;9.20;;;4.88;;
1701;SDS011;848;48.354;10.064;2023-04-05T02:25:09;12.23;;;5.32;;
1701;SDS011;848;48.354;10.064;2023-04-05T02:27:37;7.20;;;3.92;;
1701;SDS011;848;48.354;10.064;2023-04-05T02:30:05;9.73;;;5.20;;
1701;SDS011;848;48.354;10.064;2023-04-05T02:32:32;11.00;;;4.82;;
1701;SDS011;848;48.354;10.064;2023-04-05T02:34:59;10.90;;;4.82;;
1701;SDS011;848;48.354;10.064;2023-04-05T02:37:28;8.57;;;4.50;;
1701;SDS011;848;48.354;10.064;2023-04-05T02:39:55;9.68;;;5.07;;
1701;SDS011;848;48.354;10.064;2023-04-05T02:42:21;9.38;;;4.55;;
1701;SDS011;848;48.354;10.064;2023-04-05T02:44:48;10.13;;;4.30;;
1701;SDS011;848;48.354;10.064;2023-04-05T02:47:16;9.82;;;3.95;;
1701;SDS011;848;48.354;10.064;2023-04-05T02:49:45;7.72;;;4.13;;
1701;SDS011;848;48.354;10.064;2023-04-05T02:52:12;7.50;;;3.45;;
1701;SDS011;848;48.354;10.064;2023-04-05T02:54:41;7.60;;;3.65;;
1701;SDS011;848;48.354;10.064;2023-04-05T02:57:08;8.43;;;3.67;;
1701;SDS011;848;48.354;10.064;2023-04-05T02:59:35;7.80;;;3.75;;
1701;SDS011;848;48.354;10.064;2023-04-05T03:02:03;8.40;;;3.75;;
1701;SDS011;848;48.354;10.064;2023-04-05T03:04:30;10.80;;;4.57;;
1701;SDS011;848;48.354;10.064;2023-04-05T03:06:58;10.07;;;5.20;;
1701;SDS011;848;48.354;10.064;2023-04-05T03:09:26;10.55;;;4.30;;
1701;SDS011;848;48.354;10.064;2023-04-05T03:12:00;10.93;;;4.18;;
1701;SDS011;848;48.354;10.064;2023-04-05T03:14:28;11.15;;;4.28;;
1701;SDS011;848;48.354;10.064;2023-04-05T03:16:55;8.77;;;4.32;;
1701;SDS011;848;48.354;10.064;2023-04-05T03:19:23;8.13;;;3.95;;
1701;SDS011;848;48.354;10.064;2023-04-05T03:21:51;9.63;;;4.70;;
1701;SDS011;848;48.354;10.064;2023-04-05T03:24:18;9.48;;;3.97;;
1701;SDS011;848;48.354;10.064;2023-04-05T03:26:46;9.80;;;3.72;;
1701;SDS011;848;48.354;10.064;2023-04-05T03:29:15;9.65;;;3.40;;
1701;SDS011;848;48.354;10.064;2023-04-05T03:31:43;9.70;;;3.80;;
1701;SDS011;848;48.354;10.064;2023-04-05T03:34:10;8.20;;;4.25;;
1701;SDS011;848;48.354;10.064;2023-04-05T03:36:40;8.70;;;3.88;;
1701;SDS011;848;48.354;10.064;2023-04-05T03:39:07;8.07;;;3.90;;
1701;SDS011;848;48.354;10.064;2023-04-05T03:41:34;12.23;;;4.18;;
1701;SDS011;848;48.354;10.064;2023-04-05T03:44:01;11.27;;;4.25;;
1701;SDS011;848;48.354;10.064;2023-04-05T03:46:29;12.77;;;5.50;;
1701;SDS011;848;48.354;10.064;2023-04-05T03:48:56;8.90;;;3.72;;
1701;SDS011;848;48.354;10.064;2023-04-05T03:51:23;10.15;;;3.92;;
1701;SDS011;848;48.354;10.064;2023-04-05T03:53:54;7.90;;;4.65;;
1701;SDS011;848;48.354;10.064;2023-04-05T03:56:21;9.05;;;4.53;;
1701;SDS011;848;48.354;10.064;2023-04-05T03:58:48;8.60;;;4.63;;
1701;SDS011;848;48.354;10.064;2023-04-05T04:01:15;8.88;;;4.20;;
1701;SDS011;848;48.354;10.064;2023-04-05T04:03:43;8.70;;;3.70;;
1701;SDS011;848;48.354;10.064;2023-04-05T04:06:11;8.27;;;3.80;;
1701;SDS011;848;48.354;10.064;2023-04-05T04:08:38;8.80;;;3.95;;
1701;SDS011;848;48.354;10.064;2023-04-05T04:11:05;10.23;;;4.60;;
1701;SDS011;848;48.354;10.064;2023-04-05T04:13:32;9.80;;;4.20;;
1701;SDS011;848;48.354;10.064;2023-04-05T04:15:59;9.32;;;4.90;;
1701;SDS011;848;48.354;10.064;2023-04-05T04:18:26;8.75;;;3.47;;
1701;SDS011;848;48.354;10.064;2023-04-05T04:20:54;12.05;;;4.53;;
1701;SDS011;848;48.354;10.064;2023-04-05T04:23:22;9.00;;;3.53;;
1701;SDS011;848;48.354;10.064;2023-04-05T04:25:51;9.05;;;3.97;;
1701;SDS011;848;48.354;10.064;2023-04-05T04:28:18;9.63;;;3.92;;
1701;SDS011;848;48.354;10.064;2023-04-05T04:30:49;8.10;;;3.53;;
1701;SDS011;848;48.354;10.064;2023-04-05T04:33:16;8.38;;;3.67;;
1701;SDS011;848;48.354;10.064;2023-04-05T04:35:44;11.23;;;4.40;;
1701;SDS011;848;48.354;10.064;2023-04-05T04:38:13;9.05;;;3.40;;
1701;SDS011;848;48.354;10.064;2023-04-05T04:40:43;10.02;;;4.28;;
1701;SDS011;848;48.354;10.064;2023-04-05T04:43:12;9.82;;;4.45;;
1701;SDS011;848;48.354;10.064;2023-04-05T04:45:42;8.60;;;4.20;;
1701;SDS011;848;48.354;10.064;2023-04-05T04:48:12;10.05;;;4.80;;
1701;SDS011;848;48.354;10.064;2023-04-05T04:50:40;9.13;;;4.00;;
1701;SDS011;848;48.354;10.064;2023-04-05T04:53:08;7.57;;;4.13;;
1701;SDS011;848;48.354;10.064;2023-04-05T04:55:37;6.75;;;3.50;;
1701;SDS011;848;48.354;10.064;2023-04-05T04:58:08;8.95;;;4.22;;
1701;SDS011;848;48.354;10.064;2023-04-05T05:00:37;7.85;;;3.33;;
1701;SDS011;848;48.354;10.064;2023-04-05T05:03:05;11.48;;;4.65;;
1701;SDS011;848;48.354;10.064;2023-04-05T05:05:35;7.68;;;3.53;;
1701;SDS011;848;48.354;10.064;2023-04-05T05:08:06;9.07;;;4.13;;
1701;SDS011;848;48.354;10.064;2023-04-05T05:10:33;10.60;;;3.55;;
1701;SDS011;848;48.354;10.064;2023-04-05T05:13:02;8.55;;;4.05;;
1701;SDS011;848;48.354;10.064;2023-04-05T05:15:29;8.80;;;4.43;;
1701;SDS011;848;48.354;10.064;2023-04-05T05:17:56;7.75;;;3.75;;
1701;SDS011;848;48.354;10.064;2023-04-05T05:20:28;10.02;;;4.03;;
1701;SDS011;848;48.354;10.064;2023-04-05T05:22:55;8.63;;;3.65;;
1701;SDS011;848;48.354;10.064;2023-04-05T05:25:25;9.05;;;3.90;;
1701;SDS011;848;48.354;10.064;2023-04-05T05:27:52;12.38;;;3.95;;
1701;SDS011;848;48.354;10.064;2023-04-05T05:30:21;11.98;;;4.07;;
1701;SDS011;848;48.354;10.064;2023-04-05T05:32:48;10.48;;;5.05;;
1701;SDS011;848;48.354;10.064;2023-04-05T05:35:14;11.10;;;5.43;;
1701;SDS011;848;48.354;10.064;2023-04-05T05:37:41;28.33;;;13.80;;
1701;SDS011;848;48.354;10.064;2023-04-05T05:40:09;28.23;;;13.15;;
1701;SDS011;848;48.354;10.064;2023-04-05T05:42:37;29.73;;;14.35;;
1701;SDS011;848;48.354;10.064;2023-04-05T05:46:49;32.25;;;16.60;;
1701;SDS011;848;48.354;10.064;2023-04-05T05:49:16;19.13;;;10.43;;
1701;SDS011;848;48.354;10.064;2023-04-05T05:51:46;22.85;;;10.35;;
1701;SDS011;848;48.354;10.064;2023-04-05T05:54:13;16.92;;;7.85;;
1701;SDS011;848;48.354;10.064;2023-04-05T05:56:39;13.43;;;6.70;;
1701;SDS011;848;48.354;10.064;2023-04-05T05:59:06;12.93;;;6.40;;
1701;SDS011;848;48.354;10.064;2023-04-05T06:01:33;11.48;;;6.03;;
1701;SDS011;848;48.354;10.064;2023-04-05T06:04:03;13.63;;;6.90;;
1701;SDS011;848;48.354;10.064;2023-04-05T06:06:30;9.35;;;4.95;;
1701;SDS011;848;48.354;10.064;2023-04-05T06:08:59;11.98;;;5.43;;
1701;SDS011;848;48.354;10.064;2023-04-05T06:11:26;12.07;;;5.47;;
1701;SDS011;848;48.354;10.064;2023-04-05T06:13:53;10.05;;;5.18;;
1701;SDS011;848;48.354;10.064;2023-04-05T06:16:20;12.43;;;6.53;;
1701;SDS011;848;48.354;10.064;2023-04-05T06:18:47;12.30;;;5.78;;
1701;SDS011;848;48.354;10.064;2023-04-05T06:21:15;12.18;;;5.72;;
1701;SDS011;848;48.354;10.064;2023-04-05T06:23:42;11.55;;;5.95;;
1701;SDS011;848;48.354;10.064;2023-04-05T06:26:14;12.27;;;6.00;;
1701;SDS011;848;48.354;10.064;2023-04-05T06:28:42;14.50;;;6.10;;
1701;SDS011;848;48.354;10.064;2023-04-05T06:31:12;13.90;;;6.60;;
1701;SDS011;848;48.354;10.064;2023-04-05T06:33:40;12.35;;;6.13;;
1701;SDS011;848;48.354;10.064;2023-04-05T06:36:07;11.10;;;6.13;;
1701;SDS011;848;48.354;10.064;2023-04-05T06:38:38;11.25;;;6.10;;
1701;SDS011;848;48.354;10.064;2023-04-05T06:41:05;11.70;;;6.35;;
1701;SDS011;848;48.354;10.064;2023-04-05T06:43:32;9.95;;;6.32;;
1701;SDS011;848;48.354;10.064;2023-04-05T06:45:59;13.50;;;6.38;;
1701;SDS011;848;48.354;10.064;2023-04-05T06:48:26;9.13;;;5.72;;
1701;SDS011;848;48.354;10.064;2023-04-05T06:50:57;9.50;;;5.53;;
1701;SDS011;848;48.354;10.064;2023-04-05T06:53:24;13.75;;;7.53;;
1701;SDS011;848;48.354;10.064;2023-04-05T06:55:53;9.70;;;6.28;;
1701;SDS011;848;48.354;10.064;2023-04-05T06:58:20;9.48;;;5.78;;
1701;SDS011;848;48.354;10.064;2023-04-05T07:00:48;11.90;;;6.75;;
1701;SDS011;848;48.354;10.064;2023-04-05T07:03:15;13.02;;;7.05;;
1701;SDS011;848;48.354;10.064;2023-04-05T07:05:48;9.77;;;6.72;;
1701;SDS011;848;48.354;10.064;2023-04-05T07:08:17;13.23;;;7.50;;
1701;SDS011;848;48.354;10.064;2023-04-05T07:10:44;12.57;;;7.35;;
1701;SDS011;848;48.354;10.064;2023-04-05T07:13:13;12.63;;;7.25;;
1701;SDS011;848;48.354;10.064;2023-04-05T07:15:41;14.02;;;7.63;;
1701;SDS011;848;48.354;10.064;2023-04-05T07:18:08;15.15;;;7.55;;
1701;SDS011;848;48.354;10.064;2023-04-05T07:20:35;9.70;;;6.25;;
1701;SDS011;848;48.354;10.064;2023-04-05T07:23:02;11.52;;;6.40;;
1701;SDS011;848;48.354;10.064;2023-04-05T07:25:29;10.55;;;6.18;;
1701;SDS011;848;48.354;10.064;2023-04-05T07:27:56;11.60;;;6.10;;
1701;SDS011;848;48.354;10.064;2023-04-05T07:30:25;12.20;;;6.35;;
1701;SDS011;848;48.354;10.064;2023-04-05T07:32:55;10.60;;;7.35;;
1701;SDS011;848;48.354;10.064;2023-04-05T07:35:22;10.77;;;6.07;;
1701;SDS011;848;48.354;10.064;2023-04-05T07:37:49;11.88;;;5.80;;
1701;SDS011;848;48.354;10.064;2023-04-05T07:40:16;10.82;;;5.55;;
1701;SDS011;848;48.354;10.064;2023-04-05T07:42:43;10.27;;;6.50;;
1701;SDS011;848;48.354;10.064;2023-04-05T07:45:10;10.48;;;5.70;;
1701;SDS011;848;48.354;10.064;2023-04-05T07:47:39;12.65;;;6.03;;
1701;SDS011;848;48.354;10.064;2023-04-05T07:50:06;9.82;;;5.53;;
1701;SDS011;848;48.354;10.064;2023-04-05T07:52:36;9.25;;;6.05;;
1701;SDS011;848;48.354;10.064;2023-04-05T07:55:03;12.77;;;5.50;;
1701;SDS011;848;48.354;10.064;2023-04-05T07:57:31;9.38;;;5.85;;
1701;SDS011;848;48.354;10.064;2023-04-05T07:59:58;10.77;;;6.38;;
1701;SDS011;848;48.354;10.064;2023-04-05T08:02:25;10.57;;;5.95;;
1701;SDS011;848;48.354;10.064;2023-04-05T08:04:53;9.15;;;5.40;;
1701;SDS011;848;48.354;10.064;2023-04-05T08:07:23;11.73;;;5.65;;
1701;SDS011;848;48.354;10.064;2023-04-05T08:09:50;10.75;;;5.80;;
1701;SDS011;848;48.354;10.064;2023-04-05T08:12:17;9.45;;;3.95;;
1701;SDS011;848;48.354;10.064;2023-04-05T08:14:44;8.00;;;4.82;;
1701;SDS011;848;48.354;10.064;2023-04-05T08:17:12;11.25;;;6.50;;
1701;SDS011;848;48.354;10.064;2023-04-05T08:19:39;9.85;;;6.32;;
1701;SDS011;848;48.354;10.064;2023-04-05T08:22:08;13.25;;;6.88;;
1701;SDS011;848;48.354;10.064;2023-04-05T08:24:35;13.00;;;5.50;;
1701;SDS011;848;48.354;10.064;2023-04-05T08:27:02;11.00;;;5.68;;
1701;SDS011;848;48.354;10.064;2023-04-05T08:29:30;9.90;;;5.65;;
1701;SDS011;848;48.354;10.064;2023-04-05T08:33:55;11.05;;;5.43;;
1701;SDS011;848;48.354;10.064;2023-04-05T08:36:22;10.75;;;6.25;;
1701;SDS011;848;48.354;10.064;2023-04-05T08:38:50;10.43;;;6.28;;
1701;SDS011;848;48.354;10.064;2023-04-05T08:41:17;13.52;;;6.13;;
1701;SDS011;848;48.354;10.064;2023-04-05T08:43:54;11.90;;;5.65;;
1701;SDS011;848;48.354;10.064;2023-04-05T08:46:23;9.88;;;5.35;;
1701;SDS011;848;48.354;10.064;2023-04-05T08:48:51;9.60;;;6.03;;
1701;SDS011;848;48.354;10.064;2023-04-05T08:51:20;9.50;;;5.35;;
1701;SDS011;848;48.354;10.064;2023-04-05T08:53:47;10.77;;;5.75;;
1701;SDS011;848;48.354;10.064;2023-04-05T08:56:15;11.80;;;5.20;;
1701;SDS011;848;48.354;10.064;2023-04-05T08:58:46;11.18;;;5.57;;
1701;SDS011;848;48.354;10.064;2023-04-05T09:01:18;13.13;;;6.10;;
1701;SDS011;848;48.354;10.064;2023-04-05T09:03:46;10.75;;;5.68;;
1701;SDS011;848;48.354;10.064;2023-04-05T09:06:17;12.57;;;6.13;;
1701;SDS011;848;48.354;10.064;2023-04-05T09:08:47;11.00;;;5.30;;
1701;SDS011;848;48.354;10.064;2023-04-05T09:11:15;10.40;;;5.47;;
1701;SDS011;848;48.354;10.064;2023-04-05T09:13:42;8.00;;;4.45;;
1701;SDS011;848;48.354;10.064;2023-04-05T09:16:09;9.90;;;5.15;;
1701;SDS011;848;48.354;10.064;2023-04-05T09:18:36;8.43;;;4.80;;
1701;SDS011;848;48.354;10.064;2023-04-05T09:21:04;8.57;;;4.45;;
1701;SDS011;848;48.354;10.064;2023-04-05T09:23:34;8.93;;;4.88;;
1701;SDS011;848;48.354;10.064;2023-04-05T09:26:05;8.80;;;4.75;;
1701;SDS011;848;48.354;10.064;2023-04-05T09:28:43;10.00;;;4.70;;
1701;SDS011;848;48.354;10.064;2023-04-05T09:31:12;8.25;;;4.90;;
1701;SDS011;848;48.354;10.064;2023-04-05T09:33:56;6.82;;;3.78;;
1701;SDS011;848;48.354;10.064;2023-04-05T09:36:24;9.68;;;4.68;;
1701;SDS011;848;48.354;10.064;2023-04-05T09:38:53;7.75;;;4.15;;
1701;SDS011;848;48.354;10.064;2023-04-05T09:41:30;10.10;;;5.35;;
1701;SDS011;848;48.354;10.064;2023-04-05T09:43:57;7.35;;;4.28;;
1701;SDS011;848;48.354;10.064;2023-04-05T09:46:28;8.50;;;4.45;;
1701;SDS011;848;48.354;10.064;2023-04-05T09:48:56;7.70;;;3.50;;
1701;SDS011;848;48.354;10.064;2023-04-05T09:51:23;7.35;;;4.13;;
1701;SDS011;848;48.354;10.064;2023-04-05T09:54:00;7.32;;;3.90;;
1701;SDS011;848;48.354;10.064;2023-04-05T09:56:30;9.15;;;3.90;;
1701;SDS011;848;48.354;10.064;2023-04-05T09:58:58;10.48;;;5.20;;
1701;SDS011;848;48.354;10.064;2023-04-05T10:01:27;9.55;;;4.60;;
1701;SDS011;848;48.354;10.064;2023-04-05T10:03:55;11.57;;;4.65;;
1701;SDS011;848;48.354;10.064;2023-04-05T10:06:28;9.75;;;5.07;;
1701;SDS011;848;48.354;10.064;2023-04-05T10:09:02;8.80;;;4.85;;
1701;SDS011;848;48.354;10.064;2023-04-05T10:11:31;9.50;;;4.53;;
1701;SDS011;848;48.354;10.064;2023-04-05T10:13:59;8.52;;;2.60;;
1701;SDS011;848;48.354;10.064;2023-04-05T10:16:28;5.15;;;2.05;;
1701;SDS011;848;48.354;10.064;2023-04-05T10:18:57;8.98;;;4.72;;
1701;SDS011;848;48.354;10.064;2023-04-05T10:21:27;10.60;;;4.07;;
1701;SDS011;848;48.354;10.064;2023-04-05T10:23:58;8.95;;;3.58;;
1701;SDS011;848;48.354;10.064;2023-04-05T10:26:35;10.38;;;4.22;;
1701;SDS011;848;48.354;10.064;2023-04-05T10:29:08;7.63;;;3.78;;
1701;SDS011;848;48.354;10.064;2023-04-05T10:31:41;9.35;;;4.72;;
1701;SDS011;848;48.354;10.064;2023-04-05T10:34:18;8.27;;;4.75;;
1701;SDS011;848;48.354;10.064;2023-04-05T10:36:53;11.00;;;5.22;;
1701;SDS011;848;48.354;10.064;2023-04-05T10:39:25;8.60;;;4.47;;
1701;SDS011;848;48.354;10.064;2023-04-05T10:41:57;10.15;;;4.13;;
1701;SDS011;848;48.354;10.064;2023-04-05T10:44:28;8.55;;;4.85;;
1701;SDS011;848;48.354;10.064;2023-04-05T10:47:01;8.52;;;4.88;;
1701;SDS011;848;48.354;10.064;2023-04-05T10:49:31;5.72;;;3.05;;
1701;SDS011;848;48.354;10.064;2023-04-05T10:52:00;6.18;;;2.90;;
1701;SDS011;848;48.354;10.064;2023-04-05T10:54:28;10.13;;;4.63;;
1701;SDS011;848;48.354;10.064;2023-04-05T10:59:29;8.35;;;4.72;;
1701;SDS011;848;48.354;10.064;2023-04-05T11:01:56;8.93;;;4.35;;
1701;SDS011;848;48.354;10.064;2023-04-05T11:04:24;8.55;;;4.30;;
1701;SDS011;848;48.354;10.064;2023-04-05T11:07:09;10.55;;;3.53;;
1701;SDS011;848;48.354;10.064;2023-04-05T11:09:37;9.52;;;4.90;;
1701;SDS011;848;48.354;10.064;2023-04-05T11:12:20;9.68;;;4.85;;
1701;SDS011;848;48.354;10.064;2023-04-05T11:15:27;8.60;;;4.90;;
1701;SDS011;848;48.354;10.064;2023-04-05T11:18:00;9.40;;;4.82;;
1701;SDS011;848;48.354;10.064;2023-04-05T11:20:35;6.90;;;2.15;;
1701;SDS011;848;48.354;10.064;2023-04-05T11:23:09;8.63;;;3.35;;
1701;SDS011;848;48.354;10.064;2023-04-05T11:25:36;10.05;;;5.63;;
1701;SDS011;848;48.354;10.064;2023-04-05T11:28:06;7.65;;;4.75;;
1701;SDS011;848;48.354;10.064;2023-04-05T11:30:46;7.93;;;4.65;;
1701;SDS011;848;48.354;10.064;2023-04-05T11:36:01;9.70;;;5.00;;
1701;SDS011;848;48.354;10.064;2023-04-05T11:38:29;11.15;;;4.88;;
1701;SDS011;848;48.354;10.064;2023-04-05T11:41:04;8.40;;;4.60;;
1701;SDS011;848;48.354;10.064;2023-04-05T11:43:33;10.63;;;5.45;;
1701;SDS011;848;48.354;10.064;2023-04-05T11:46:02;6.22;;;2.75;;
1701;SDS011;848;48.354;10.064;2023-04-05T11:48:30;9.88;;;4.53;;
1701;SDS011;848;48.354;10.064;2023-04-05T11:50:58;8.60;;;4.28;;
1701;SDS011;848;48.354;10.064;2023-04-05T11:53:25;12.32;;;5.32;;
1701;SDS011;848;48.354;10.064;2023-04-05T11:55:52;18.33;;;10.30;;
1701;SDS011;848;48.354;10.064;2023-04-05T11:58:21;10.65;;;5.18;;
1701;SDS011;848;48.354;10.064;2023-04-05T12:00:57;8.05;;;5.03;;
1701;SDS011;848;48.354;10.064;2023-04-05T12:03:26;12.82;;;5.07;;
1701;SDS011;848;48.354;10.064;2023-04-05T12:05:54;9.35;;;5.40;;
1701;SDS011;848;48.354;10.064;2023-04-05T12:08:22;10.10;;;5.00;;
1701;SDS011;848;48.354;10.064;2023-04-05T12:10:53;9.55;;;5.65;;
1701;SDS011;848;48.354;10.064;2023-04-05T12:13:24;9.80;;;5.03;;
1701;SDS011;848;48.354;10.064;2023-04-05T12:15:57;9.70;;;5.25;;
1701;SDS011;848;48.354;10.064;2023-04-05T12:18:26;8.70;;;5.22;;
1701;SDS011;848;48.354;10.064;2023-04-05T12:20:55;9.00;;;4.97;;
1701;SDS011;848;48.354;10.064;2023-04-05T12:23:23;8.55;;;5.13;;
1701;SDS011;848;48.354;10.064;2023-04-05T12:25:52;8.20;;;4.75;;
1701;SDS011;848;48.354;10.064;2023-04-05T12:28:22;10.18;;;5.38;;
1701;SDS011;848;48.354;10.064;2023-04-05T12:30:50;9.15;;;5.47;;
1701;SDS011;848;48.354;10.064;2023-04-05T12:33:26;13.07;;;6.20;;
1701;SDS011;848;48.354;10.064;2023-04-05T12:35:56;9.38;;;4.57;;
1701;SDS011;848;48.354;10.064;2023-04-05T12:38:24;9.75;;;5.75;;
1701;SDS011;848;48.354;10.064;2023-04-05T12:40:52;9.13;;;5.05;;
1701;SDS011;848;48.354;10.064;2023-04-05T12:43:19;8.60;;;5.10;;
1701;SDS011;848;48.354;10.064;2023-04-05T12:45:46;10.60;;;5.60;;
1701;SDS011;848;48.354;10.064;2023-04-05T12:48:19;10.30;;;5.00;;
1701;SDS011;848;48.354;10.064;2023-04-05T12:50:49;8.55;;;4.82;;
1701;SDS011;848;48.354;10.064;2023-04-05T12:53:18;9.15;;;5.38;;
1701;SDS011;848;48.354;10.064;2023-04-05T12:55:48;9.05;;;5.55;;
1701;SDS011;848;48.354;10.064;2023-04-05T12:58:19;7.68;;;3.90;;
1701;SDS011;848;48.354;10.064;2023-04-05T13:00:46;12.02;;;3.60;;
1701;SDS011;848;48.354;10.064;2023-04-05T13:03:14;9.82;;;4.32;;
1701;SDS011;848;48.354;10.064;2023-04-05T13:05:42;13.05;;;5.50;;
1701;SDS011;848;48.354;10.064;2023-04-05T13:08:10;8.20;;;4.90;;
1701;SDS011;848;48.354;10.064;2023-04-05T13:10:37;9.13;;;5.20;;
1701;SDS011;848;48.354;10.064;2023-04-05T13:13:04;10.40;;;4.90;;
1701;SDS011;848;48.354;10.064;2023-04-05T13:15:31;9.65;;;5.50;;
1701;SDS011;848;48.354;10.064;2023-04-05T13:17:58;10.57;;;5.53;;
1701;SDS011;848;48.354;10.064;2023-04-05T13:20:24;10.77;;;5.50;;
1701;SDS011;848;48.354;10.064;2023-04-05T13:22:51;11.05;;;5.20;;
1701;SDS011;848;48.354;10.064;2023-04-05T13:25:20;10.85;;;5.40;;
1701;SDS011;848;48.354;10.064;2023-04-05T13:27:47;9.45;;;5.00;;
1701;SDS011;848;48.354;10.064;2023-04-05T13:30:14;10.55;;;5.38;;
1701;SDS011;848;48.354;10.064;2023-04-05T13:32:41;8.93;;;4.80;;
1701;SDS011;848;48.354;10.064;2023-04-05T13:35:08;10.00;;;5.32;;
1701;SDS011;848;48.354;10.064;2023-04-05T13:37:35;9.50;;;5.45;;
1701;SDS011;848;48.354;10.064;2023-04-05T13:40:03;10.30;;;5.50;;
1701;SDS011;848;48.354;10.064;2023-04-05T13:42:32;8.27;;;4.80;;
1701;SDS011;848;48.354;10.064;2023-04-05T13:44:59;10.18;;;4.88;;
1701;SDS011;848;48.354;10.064;2023-04-05T13:47:26;9.05;;;5.55;;
1701;SDS011;848;48.354;10.064;2023-04-05T13:49:52;9.45;;;4.47;;
1701;SDS011;848;48.354;10.064;2023-04-05T13:52:19;10.80;;;5.88;;
1701;SDS011;848;48.354;10.064;2023-04-05T13:54:46;8.82;;;5.20;;
1701;SDS011;848;48.354;10.064;2023-04-05T13:57:13;9.75;;;5.65;;
1701;SDS011;848;48.354;10.064;2023-04-05T13:59:42;9.48;;;5.10;;
1701;SDS011;848;48.354;10.064;2023-04-05T14:02:09;10.05;;;5.63;;
1701;SDS011;848;48.354;10.064;2023-04-05T14:04:37;8.63;;;4.68;;
1701;SDS011;848;48.354;10.064;2023-04-05T14:07:04;10.55;;;6.18;;
1701;SDS011;848;48.354;10.064;2023-04-05T14:09:31;11.98;;;5.65;;
1701;SDS011;848;48.354;10.064;2023-04-05T14:11:59;10.98;;;4.85;;
1701;SDS011;848;48.354;10.064;2023-04-05T14:14:28;8.73;;;4.60;;
1701;SDS011;848;48.354;10.064;2023-04-05T14:16:56;8.55;;;4.65;;
1701;SDS011;848;48.354;10.064;2023-04-05T14:19:23;9.68;;;5.38;;
1701;SDS011;848;48.354;10.064;2023-04-05T14:21:50;6.60;;;3.40;;
1701;SDS011;848;48.354;10.064;2023-04-05T14:24:17;10.82;;;5.00;;
1701;SDS011;848;48.354;10.064;2023-04-05T14:26:45;10.23;;;4.80;;
1701;SDS011;848;48.354;10.064;2023-04-05T14:29:13;9.70;;;5.00;;
1701;SDS011;848;48.354;10.064;2023-04-05T14:31:40;9.40;;;5.00;;
1701;SDS011;848;48.354;10.064;2023-04-05T14:34:09;9.18;;;5.10;;
1701;SDS011;848;48.354;10.064;2023-04-05T14:36:36;9.25;;;5.60;;
1701;SDS011;848;48.354;10.064;2023-04-05T14:39:03;10.30;;;4.65;;
1701;SDS011;848;48.354;10.064;2023-04-05T14:41:30;9.43;;;6.05;;
1701;SDS011;848;48.354;10.064;2023-04-05T14:43:59;10.02;;;5.97;;
1701;SDS011;848;48.354;10.064;2023-04-05T14:46:26;9.52;;;4.55;;
1701;SDS011;848;48.354;10.064;2023-04-05T14:48:53;10.20;;;5.13;;
1701;SDS011;848;48.354;10.064;2023-04-05T14:51:21;9.23;;;4.93;;
1701;SDS011;848;48.354;10.064;2023-04-05T14:53:48;9.50;;;4.38;;
1701;SDS011;848;48.354;10.064;2023-04-05T14:56:16;9.88;;;5.30;;
1701;SDS011;848;48.354;10.064;2023-04-05T14:58:43;10.30;;;5.53;;
1701;SDS011;848;48.354;10.064;2023-04-05T15:01:10;9.15;;;5.22;;
1701;SDS011;848;48.354;10.064;2023-04-05T15:03:38;9.95;;;5.32;;
1701;SDS011;848;48.354;10.064;2023-04-05T15:06:05;9.43;;;5.25;;
1701;SDS011;848;48.354;10.064;2023-04-05T15:08:34;9.77;;;4.97;;
1701;SDS011;848;48.354;10.064;2023-04-05T15:11:01;11.05;;;5.65;;
1701;SDS011;848;48.354;10.064;2023-04-05T15:13:29;11.70;;;4.45;;
1701;SDS011;848;48.354;10.064;2023-04-05T15:15:56;9.65;;;5.28;;
1701;SDS011;848;48.354;10.064;2023-04-05T15:18:23;10.90;;;6.25;;
1701;SDS011;848;48.354;10.064;2023-04-05T15:20:51;9.77;;;5.97;;
1701;SDS011;848;48.354;10.064;2023-04-05T15:23:18;9.55;;;5.78;;
1701;SDS011;848;48.354;10.064;2023-04-05T15:25:47;10.93;;;5.93;;
1701;SDS011;848;48.354;10.064;2023-04-05T15:28:14;11.18;;;5.85;;
1701;SDS011;848;48.354;10.064;2023-04-05T15:30:41;8.93;;;5.50;;
1701;SDS011;848;48.354;10.064;2023-04-05T15:33:09;9.00;;;5.72;;